Time;durP1;ratioP1;P1;durP2;ratioP2;P2;SDS_P1;SDS_P2;PMS_P1;PMS_P2;Temp;Humidity;BMP_temperature;BMP_pressure;BME280_temperature;BME280_humidity;BME280_pressure;Samples;Min_cycle;Max_cycle;Signal;HPM_P1;HPM_P2
2023/06/06 00:01:21;;;;;;;7.82;6.20;;;20.60;75.10;;;;;;5013145;28;20038;-48
2023/06/06 00:04:07;;;;;;;10.15;7.32;;;20.60;75.40;;;;;;5012808;28;20414;-45
2023/06/06 00:06:53;;;;;;;7.80;6.90;;;20.60;75.80;;;;;;5012166;28;20034;-47
2023/06/06 00:09:39;;;;;;;10.73;6.47;;;20.50;75.90;;;;;;5032491;28;20527;-48
2023/06/06 00:12:25;;;;;;;11.20;7.32;;;20.40;77.20;;;;;;5031658;28;20567;-48
2023/06/06 00:15:13;;;;;;;8.10;7.30;;;20.30;76.90;;;;;;5031781;28;20116;-46
2023/06/06 00:17:59;;;;;;;8.35;7.43;;;20.30;77.50;;;;;;5031619;28;20029;-51
2023/06/06 00:20:46;;;;;;;8.85;7.05;;;20.20;78.10;;;;;;5032432;28;20033;-47
2023/06/06 00:23:32;;;;;;;8.95;7.70;;;20.20;78.50;;;;;;5031419;28;20087;-48
2023/06/06 00:26:18;;;;;;;7.90;7.03;;;20.20;78.30;;;;;;5032023;28;20447;-46
2023/06/06 00:29:04;;;;;;;9.80;7.28;;;20.10;78.60;;;;;;5032167;28;20029;-46
2023/06/06 00:31:50;;;;;;;9.55;6.90;;;20.10;78.70;;;;;;5032214;28;20437;-46
2023/06/06 00:34:36;;;;;;;9.15;7.18;;;20.10;78.80;;;;;;5031304;28;20044;-47
2023/06/06 00:37:22;;;;;;;8.40;6.97;;;20.20;78.60;;;;;;5031783;28;20026;-46
2023/06/06 00:40:09;;;;;;;8.52;6.60;;;20.30;78.20;;;;;;5032034;28;20038;-48
2023/06/06 00:42:55;;;;;;;7.97;7.20;;;20.40;77.90;;;;;;5030621;28;20026;-46
2023/06/06 00:45:41;;;;;;;8.43;7.32;;;20.50;77.70;;;;;;5017018;28;20034;-48
2023/06/06 00:48:27;;;;;;;7.88;6.93;;;20.60;77.70;;;;;;5012275;28;20026;-48
2023/06/06 00:51:13;;;;;;;9.38;7.03;;;20.60;77.50;;;;;;5011566;28;20034;-48
2023/06/06 00:53:59;;;;;;;10.50;6.97;;;20.40;78.20;;;;;;5024713;28;20030;-48
2023/06/06 00:56:47;;;;;;;11.55;6.90;;;20.30;79.20;;;;;;5011771;28;20022;-50
2023/06/06 00:59:33;;;;;;;9.52;7.40;;;20.20;79.50;;;;;;5021048;28;20073;-45
2023/06/06 01:02:20;;;;;;;10.65;7.82;;;20.10;79.90;;;;;;5031873;28;20060;-49
2023/06/06 01:05:07;;;;;;;14.75;7.95;;;20.00;80.20;;;;;;5031958;28;20532;-48
2023/06/06 01:07:53;;;;;;;8.23;7.38;;;20.00;80.20;;;;;;5032050;28;20038;-48
2023/06/06 01:10:40;;;;;;;8.70;7.13;;;20.10;80.20;;;;;;5033825;28;20025;-47
2023/06/06 01:13:45;;;;;;;8.95;7.65;;;20.10;80.20;;;;;;5034162;28;20040;-47
2023/06/06 01:16:33;;;;;;;9.55;7.35;;;20.20;80.30;;;;;;5034330;28;20450;-47
2023/06/06 01:19:27;;;;;;;7.97;7.07;;;20.20;80.30;;;;;;5035143;28;20067;-49
2023/06/06 01:22:13;;;;;;;8.05;6.68;;;20.20;80.30;;;;;;5034092;28;20029;-48
2023/06/06 01:24:59;;;;;;;7.78;6.80;;;20.00;80.60;;;;;;5034075;28;20057;-47
2023/06/06 01:27:46;;;;;;;8.93;7.35;;;20.00;81.10;;;;;;5033933;28;20079;-51
2023/06/06 01:30:34;;;;;;;8.15;6.78;;;20.00;81.50;;;;;;5035317;28;20074;-47
2023/06/06 01:33:44;;;;;;;8.10;7.22;;;20.10;81.60;;;;;;5034790;28;20033;-51
2023/06/06 01:36:53;;;;;;;8.43;7.30;;;20.20;81.30;;;;;;5034135;28;20052;-50
2023/06/06 01:39:43;;;;;;;8.55;7.22;;;20.20;81.20;;;;;;5034019;28;20025;-48
2023/06/06 01:42:30;;;;;;;10.43;7.43;;;20.10;81.20;;;;;;5034627;28;20096;-50
2023/06/06 01:45:20;;;;;;;8.93;7.20;;;20.20;81.50;;;;;;5034728;28;20038;-51
2023/06/06 01:48:06;;;;;;;10.75;7.63;;;20.20;81.10;;;;;;5034318;28;20036;-49
2023/06/06 01:50:54;;;;;;;9.02;7.28;;;20.20;80.50;;;;;;5031904;28;20041;-49
2023/06/06 01:53:40;;;;;;;10.93;7.45;;;20.20;80.30;;;;;;5033320;28;20029;-50
2023/06/06 01:56:26;;;;;;;14.68;7.10;;;20.20;80.30;;;;;;5034326;28;20057;-50
2023/06/06 01:59:11;;;;;;;8.05;7.07;;;20.30;80.30;;;;;;5034396;28;20045;-50
2023/06/06 02:01:57;;;;;;;8.32;7.45;;;20.30;80.20;;;;;;5034886;28;20109;-54
2023/06/06 02:04:43;;;;;;;9.05;7.35;;;20.20;80.30;;;;;;5033611;28;20121;-54
2023/06/06 02:07:30;;;;;;;9.02;7.05;;;20.10;80.80;;;;;;5019791;28;20562;-51
2023/06/06 02:10:16;;;;;;;10.88;7.70;;;19.90;82.10;;;;;;5012829;28;20088;-52
2023/06/06 02:13:02;;;;;;;9.30;7.28;;;19.80;82.60;;;;;;5023455;28;20038;-46
2023/06/06 02:15:48;;;;;;;10.80;7.10;;;19.70;82.70;;;;;;5032639;28;20041;-49
2023/06/06 02:18:34;;;;;;;8.50;7.20;;;19.70;82.90;;;;;;5034236;28;20037;-49
2023/06/06 02:21:20;;;;;;;7.70;6.80;;;19.80;82.80;;;;;;5033314;28;20037;-47
2023/06/06 02:24:06;;;;;;;9.00;7.28;;;19.80;82.50;;;;;;5033971;28;20037;-48
2023/06/06 02:26:53;;;;;;;8.32;6.90;;;19.90;82.40;;;;;;5030569;28;20407;-49
2023/06/06 02:29:39;;;;;;;8.63;7.50;;;19.90;82.10;;;;;;5013684;28;20022;-48
2023/06/06 02:32:25;;;;;;;9.02;7.40;;;19.90;81.90;;;;;;5012898;28;20030;-50
2023/06/06 02:35:11;;;;;;;8.73;7.53;;;20.00;82.60;;;;;;5014353;28;20025;-51
2023/06/06 02:37:57;;;;;;;8.98;7.10;;;20.00;82.50;;;;;;5013771;28;20049;-48
2023/06/06 02:40:44;;;;;;;8.00;7.20;;;20.00;82.40;;;;;;5016119;28;20100;-51
2023/06/06 02:43:30;;;;;;;10.27;7.97;;;20.00;82.90;;;;;;5015800;28;20109;-51
2023/06/06 02:46:16;;;;;;;9.95;8.10;;;20.00;83.10;;;;;;5013868;28;20030;-46
2023/06/06 02:49:02;;;;;;;8.88;7.47;;;19.90;83.40;;;;;;5013303;28;20030;-46
2023/06/06 02:51:48;;;;;;;8.75;7.85;;;19.90;82.80;;;;;;5012159;28;20037;-46
2023/06/06 02:54:34;;;;;;;9.20;8.20;;;19.90;82.90;;;;;;5013429;28;20114;-47
2023/06/06 02:57:21;;;;;;;8.50;7.60;;;19.90;82.90;;;;;;5013285;28;20096;-47
2023/06/06 03:00:08;;;;;;;9.43;7.82;;;19.90;82.70;;;;;;5040125;28;20577;-46
2023/06/06 03:02:54;;;;;;;10.70;8.10;;;20.00;82.40;;;;;;5026928;28;20099;-46
2023/06/06 03:05:40;;;;;;;13.38;7.97;;;20.00;82.40;;;;;;5032778;28;20034;-46
2023/06/06 03:08:26;;;;;;;9.25;7.53;;;19.90;82.70;;;;;;5032869;28;20502;-47
2023/06/06 03:11:12;;;;;;;8.82;7.93;;;19.90;83.80;;;;;;5033720;28;20101;-45
2023/06/06 03:13:58;;;;;;;11.48;7.97;;;19.80;83.40;;;;;;5034039;28;20519;-47
2023/06/06 03:16:46;;;;;;;9.13;8.23;;;19.80;83.20;;;;;;5014704;28;20041;-46
2023/06/06 03:19:32;;;;;;;10.55;8.35;;;19.80;83.50;;;;;;5014232;28;20025;-47
2023/06/06 03:22:18;;;;;;;10.32;8.30;;;19.80;84.00;;;;;;5013739;28;20026;-46
2023/06/06 03:25:04;;;;;;;10.18;8.73;;;19.80;84.00;;;;;;5012823;28;20033;-46
2023/06/06 03:27:50;;;;;;;9.73;7.90;;;19.80;83.50;;;;;;5011888;28;20113;-48
2023/06/06 03:30:37;;;;;;;11.20;7.88;;;19.80;83.00;;;;;;5011358;28;20032;-50
2023/06/06 03:33:23;;;;;;;10.80;8.00;;;19.70;82.60;;;;;;5011452;28;20041;-50
2023/06/06 03:36:09;;;;;;;10.82;8.65;;;19.80;82.50;;;;;;5012400;28;20034;-47
2023/06/06 03:38:55;;;;;;;13.15;8.27;;;19.80;82.10;;;;;;5012294;28;20434;-47
2023/06/06 03:41:41;;;;;;;8.73;7.80;;;19.80;81.60;;;;;;5014882;28;20128;-47
2023/06/06 03:44:27;;;;;;;9.90;7.40;;;19.80;82.30;;;;;;5013308;28;20124;-47
2023/06/06 03:47:13;;;;;;;11.15;7.10;;;19.70;81.70;;;;;;5014912;28;20026;-46
2023/06/06 03:49:59;;;;;;;9.05;7.72;;;19.70;82.10;;;;;;5011491;28;20041;-47
2023/06/06 03:52:45;;;;;;;9.50;8.07;;;19.60;83.00;;;;;;5012200;28;20482;-49
2023/06/06 03:55:34;;;;;;;9.25;8.35;;;19.50;84.30;;;;;;5012885;28;20054;-47
2023/06/06 03:58:20;;;;;;;9.80;8.15;;;19.50;85.20;;;;;;5011806;28;20509;-50
2023/06/06 04:01:06;;;;;;;12.40;8.52;;;19.40;86.80;;;;;;5012408;28;20041;-51
2023/06/06 04:03:52;;;;;;;10.77;8.88;;;19.40;87.40;;;;;;5012701;28;20029;-53
2023/06/06 04:06:38;;;;;;;9.93;7.90;;;19.40;87.40;;;;;;5028926;28;20068;-52
2023/06/06 04:09:24;;;;;;;9.63;7.65;;;19.30;88.30;;;;;;5032413;28;20060;-52
2023/06/06 04:12:10;;;;;;;9.85;8.35;;;19.30;88.40;;;;;;5031685;28;20029;-48
2023/06/06 04:14:56;;;;;;;11.75;8.85;;;19.20;88.60;;;;;;5033630;28;20034;-46
2023/06/06 04:17:42;;;;;;;10.27;8.48;;;19.10;88.60;;;;;;5022172;28;20042;-49
2023/06/06 04:20:28;;;;;;;9.98;8.70;;;19.00;89.00;;;;;;5011814;28;20084;-50
2023/06/06 04:23:14;;;;;;;12.13;9.32;;;19.00;89.40;;;;;;5011817;28;20030;-51
2023/06/06 04:26:01;;;;;;;12.10;9.20;;;18.90;89.90;;;;;;5011939;28;20030;-47
2023/06/06 04:28:48;;;;;;;16.55;10.32;;;18.70;90.30;;;;;;5013972;28;20498;-50
2023/06/06 04:31:35;;;;;;;10.88;9.32;;;18.50;90.60;;;;;;5014916;28;20049;-56
2023/06/06 04:34:23;;;;;;;12.15;9.55;;;18.20;91.60;;;;;;5011728;28;20030;-53
2023/06/06 04:37:10;;;;;;;15.65;9.45;;;18.30;92.00;;;;;;5010975;28;20403;-53
2023/06/06 04:39:56;;;;;;;9.60;8.60;;;18.30;91.90;;;;;;5013382;28;20030;-53
2023/06/06 04:42:42;;;;;;;12.80;9.38;;;18.20;91.90;;;;;;5013287;28;20148;-48
2023/06/06 04:45:28;;;;;;;11.18;9.93;;;18.00;92.50;;;;;;5013166;28;20022;-51
2023/06/06 04:48:14;;;;;;;12.73;9.30;;;18.10;91.90;;;;;;5020237;28;20063;-50
2023/06/06 04:51:01;;;;;;;12.15;8.65;;;18.00;92.20;;;;;;5035517;28;20563;-47
2023/06/06 04:53:48;;;;;;;10.65;8.38;;;18.00;92.50;;;;;;5035006;28;20036;-51
2023/06/06 04:56:34;;;;;;;12.68;9.20;;;18.00;92.60;;;;;;5035076;28;20030;-47
2023/06/06 04:59:22;;;;;;;10.60;9.45;;;18.20;92.50;;;;;;5035372;28;20061;-46
2023/06/06 05:02:08;;;;;;;12.10;9.02;;;18.30;92.40;;;;;;5034522;28;20032;-47
2023/06/06 05:04:56;;;;;;;12.27;10.73;;;18.30;92.50;;;;;;5028605;28;20077;-47
2023/06/06 05:07:42;;;;;;;16.17;11.63;;;18.30;92.40;;;;;;5014542;28;20026;-49
2023/06/06 05:10:28;;;;;;;15.27;10.57;;;18.30;92.20;;;;;;5014539;28;20061;-48
2023/06/06 05:13:17;;;;;;;11.10;9.48;;;18.40;92.20;;;;;;5013446;28;20036;-50
2023/06/06 05:16:04;;;;;;;10.65;8.85;;;18.40;92.40;;;;;;5016786;28;20152;-49
2023/06/06 05:18:49;;;;;;;12.93;10.07;;;18.40;92.80;;;;;;5014405;28;20123;-48
2023/06/06 05:21:36;;;;;;;16.05;9.50;;;18.30;92.90;;;;;;5015382;28;20169;-49
2023/06/06 05:24:22;;;;;;;18.75;12.90;;;18.30;93.00;;;;;;5014570;28;20038;-47
2023/06/06 05:27:08;;;;;;;15.80;13.45;;;18.20;93.20;;;;;;5014836;28;20026;-51
2023/06/06 05:29:54;;;;;;;16.98;11.35;;;18.20;93.30;;;;;;5020180;28;20032;-51
2023/06/06 05:32:40;;;;;;;11.63;10.38;;;18.10;93.40;;;;;;5034321;28;20025;-48
2023/06/06 05:35:26;;;;;;;11.95;10.57;;;18.10;93.90;;;;;;5025466;28;20099;-50
2023/06/06 05:38:12;;;;;;;12.27;10.32;;;17.90;94.60;;;;;;5015203;28;20076;-52
2023/06/06 05:40:58;;;;;;;13.40;11.40;;;17.80;95.00;;;;;;5015651;28;20117;-52
2023/06/06 05:43:48;;;;;;;15.18;10.82;;;17.80;96.00;;;;;;5015833;28;20041;-49
2023/06/06 05:46:34;;;;;;;18.05;11.68;;;17.80;95.70;;;;;;5030272;28;20029;-48
2023/06/06 05:49:20;;;;;;;13.63;11.02;;;17.90;95.70;;;;;;5034461;28;20109;-47
2023/06/06 05:52:06;;;;;;;12.70;11.18;;;17.90;96.40;;;;;;5034378;28;20030;-50
2023/06/06 05:55:05;;;;;;;42.58;18.25;;;18.10;96.80;;;;;;5014180;28;20034;-51
2023/06/06 05:57:50;;;;;;;19.75;12.48;;;18.20;97.00;;;;;;5012556;28;20018;-49
2023/06/06 06:00:36;;;;;;;19.10;11.73;;;18.20;97.30;;;;;;5015302;28;20117;-51
2023/06/06 06:03:24;;;;;;;13.02;11.40;;;18.20;97.70;;;;;;5014670;28;20627;-47
2023/06/06 06:06:10;;;;;;;15.57;11.93;;;18.20;97.90;;;;;;5013767;28;20030;-48
2023/06/06 06:08:57;;;;;;;15.15;11.52;;;18.30;97.90;;;;;;5014369;28;20030;-48
2023/06/06 06:11:43;;;;;;;42.53;33.42;;;18.30;98.20;;;;;;5014215;28;20042;-51
2023/06/06 06:14:29;;;;;;;68.30;47.10;;;18.30;98.50;;;;;;5012184;28;20033;-51
2023/06/06 06:17:15;;;;;;;29.50;19.98;;;18.40;98.80;;;;;;5013733;28;20073;-52
2023/06/06 06:20:08;;;;;;;22.02;17.17;;;18.40;98.90;;;;;;5019266;28;20075;-53
2023/06/06 06:22:54;;;;;;;17.75;12.65;;;18.30;99.30;;;;;;5034656;28;20025;-54
2023/06/06 06:25:40;;;;;;;14.07;10.95;;;18.20;99.90;;;;;;5033580;28;20037;-53
2023/06/06 06:28:26;;;;;;;11.43;8.75;;;18.00;99.90;;;;;;5033459;28;20044;-55
2023/06/06 06:31:12;;;;;;;12.02;8.98;;;18.00;99.90;;;;;;5034603;28;20045;-52
2023/06/06 06:33:58;;;;;;;10.10;8.98;;;18.00;99.90;;;;;;5033695;28;20462;-52
2023/06/06 06:36:44;;;;;;;11.63;8.57;;;18.10;99.90;;;;;;5034896;28;20409;-53
2023/06/06 06:39:30;;;;;;;10.55;8.20;;;18.20;99.90;;;;;;5033305;28;20025;-52
2023/06/06 06:42:16;;;;;;;13.07;8.75;;;18.30;99.90;;;;;;5034919;28;20029;-49
2023/06/06 06:45:02;;;;;;;12.35;8.60;;;18.50;99.90;;;;;;5033166;28;20036;-49
2023/06/06 06:47:47;;;;;;;13.90;8.80;;;18.40;99.90;;;;;;5033236;28;20061;-49
2023/06/06 06:50:33;;;;;;;13.82;10.00;;;18.40;99.90;;;;;;5031471;28;20038;-51
2023/06/06 06:53:23;;;;;;;15.43;9.88;;;18.20;99.90;;;;;;5023349;28;20041;-53
2023/06/06 06:56:10;;;;;;;14.75;10.30;;;18.20;99.90;;;;;;5014239;28;20409;-55
2023/06/06 06:58:57;;;;;;;13.02;9.85;;;18.10;99.90;;;;;;5014004;28;20117;-50
2023/06/06 07:01:49;;;;;;;13.80;9.80;;;18.00;99.90;;;;;;5026035;28;20034;-49
2023/06/06 07:04:36;;;;;;;13.73;9.85;;;18.10;99.90;;;;;;5032560;28;20481;-53
2023/06/06 07:07:22;;;;;;;12.15;9.77;;;18.10;99.90;;;;;;5031050;28;20034;-51
2023/06/06 07:10:08;;;;;;;11.68;9.45;;;18.10;99.90;;;;;;5013304;28;20057;-52
2023/06/06 07:12:54;;;;;;;11.40;10.20;;;18.10;99.90;;;;;;5013371;28;20041;-56
2023/06/06 07:15:40;;;;;;;15.88;11.63;;;18.20;99.90;;;;;;5013648;28;20030;-52
2023/06/06 07:18:26;;;;;;;17.42;11.38;;;18.20;99.90;;;;;;5013605;28;20033;-55
2023/06/06 07:21:12;;;;;;;16.02;11.23;;;18.20;99.90;;;;;;5012380;28;20032;-56
2023/06/06 07:23:58;;;;;;;16.35;12.13;;;18.20;99.90;;;;;;5014044;28;20026;-56
2023/06/06 07:26:44;;;;;;;19.52;13.48;;;18.20;99.90;;;;;;5013424;28;20041;-55
2023/06/06 07:29:30;;;;;;;17.50;12.35;;;18.20;99.90;;;;;;5012668;28;20022;-53
2023/06/06 07:32:16;;;;;;;22.25;13.93;;;18.10;99.90;;;;;;5013446;28;20029;-54
2023/06/06 07:35:03;;;;;;;19.27;12.73;;;18.00;99.90;;;;;;5014426;28;20038;-55
2023/06/06 07:37:49;;;;;;;19.80;13.85;;;18.00;99.90;;;;;;5015293;28;20335;-51
2023/06/06 07:40:35;;;;;;;17.83;12.95;;;17.70;99.90;;;;;;5031627;28;20124;-54
2023/06/06 07:43:21;;;;;;;16.60;13.23;;;17.70;99.90;;;;;;5033271;28;20552;-52
2023/06/06 07:46:07;;;;;;;15.60;13.93;;;17.70;99.90;;;;;;5032895;28;20021;-55
2023/06/06 07:48:53;;;;;;;21.40;14.55;;;17.60;99.90;;;;;;5032304;28;20064;-55
2023/06/06 07:51:39;;;;;;;22.55;14.45;;;17.70;99.90;;;;;;5033194;28;20017;-49
2023/06/06 07:54:25;;;;;;;15.45;12.70;;;17.80;99.90;;;;;;5019211;28;20108;-48
2023/06/06 07:57:16;;;;;;;18.40;12.73;;;17.70;99.90;;;;;;5014048;28;20478;-54
2023/06/06 08:00:06;;;;;;;19.10;13.70;;;17.80;99.90;;;;;;5015059;28;20104;-48
2023/06/06 08:02:52;;;;;;;17.85;13.52;;;17.90;99.90;;;;;;5020374;28;20041;-51
2023/06/06 08:05:38;;;;;;;17.95;13.57;;;17.50;99.90;;;;;;5033632;28;20116;-52
2023/06/06 08:08:26;;;;;;;18.23;12.50;;;17.40;99.90;;;;;;5023364;28;20030;-50
2023/06/06 08:11:16;;;;;;;17.17;13.65;;;17.30;99.90;;;;;;5011863;28;20406;-47
2023/06/06 08:14:02;;;;;;;16.17;13.90;;;17.50;99.90;;;;;;5012096;28;20050;-50
2023/06/06 08:16:49;;;;;;;17.20;12.52;;;17.50;99.90;;;;;;5012240;28;20110;-46
2023/06/06 08:19:35;;;;;;;15.02;11.48;;;17.50;99.90;;;;;;5016539;28;20424;-51
2023/06/06 08:22:21;;;;;;;15.73;13.93;;;17.50;99.90;;;;;;5020480;28;20030;-48
2023/06/06 08:25:07;;;;;;;19.92;13.63;;;17.60;99.90;;;;;;5015044;28;20030;-51
2023/06/06 08:27:53;;;;;;;16.83;14.02;;;17.60;99.90;;;;;;5023943;28;20021;-50
2023/06/06 08:30:39;;;;;;;15.15;12.07;;;17.60;99.90;;;;;;5035030;28;20052;-51
2023/06/06 08:33:25;;;;;;;15.77;12.13;;;17.50;99.90;;;;;;5015026;28;20022;-51
2023/06/06 08:36:12;;;;;;;15.73;12.05;;;17.50;99.90;;;;;;5022339;28;20030;-52
2023/06/06 08:38:58;;;;;;;18.10;12.60;;;17.50;99.90;;;;;;5034773;28;20057;-50
2023/06/06 08:41:53;;;;;;;14.68;12.50;;;17.50;99.90;;;;;;5027628;28;20406;-51
2023/06/06 08:44:40;;;;;;;14.32;12.43;;;17.60;99.90;;;;;;5017108;28;20117;-48
2023/06/06 08:47:29;;;;;;;17.13;12.98;;;17.60;99.90;;;;;;5009024;28;20501;-48
2023/06/06 08:50:16;;;;;;;15.77;11.50;;;17.50;99.90;;;;;;5034841;28;20041;-48
2023/06/06 08:53:04;;;;;;;17.95;11.90;;;17.60;99.90;;;;;;5030542;28;20449;-52
2023/06/06 08:55:55;;;;;;;17.42;12.77;;;17.60;99.90;;;;;;5016667;28;20052;-51
2023/06/06 08:58:43;;;;;;;14.88;11.85;;;17.60;99.90;;;;;;5016419;28;20509;-47
2023/06/06 09:01:30;;;;;;;16.48;11.90;;;17.60;99.90;;;;;;5028537;28;20521;-48
2023/06/06 09:04:18;;;;;;;12.90;11.32;;;17.70;99.90;;;;;;5027758;28;20108;-48
2023/06/06 09:07:11;;;;;;;11.43;10.32;;;17.80;99.90;;;;;;5034211;28;20040;-48
2023/06/06 09:09:57;;;;;;;12.82;10.63;;;17.90;99.90;;;;;;5031349;28;20037;-47
2023/06/06 09:12:44;;;;;;;13.45;9.93;;;18.10;99.90;;;;;;5029294;28;20413;-48
2023/06/06 09:15:30;;;;;;;12.02;9.25;;;18.00;99.90;;;;;;5036669;28;20025;-47
2023/06/06 09:18:19;;;;;;;12.80;9.93;;;17.90;99.90;;;;;;5034756;28;20037;-49
2023/06/06 09:21:05;;;;;;;11.68;9.25;;;17.90;99.90;;;;;;5034693;28;20563;-49
2023/06/06 09:23:53;;;;;;;13.00;9.10;;;17.80;99.90;;;;;;5035491;28;20084;-48
2023/06/06 09:26:39;;;;;;;11.07;9.23;;;18.00;99.90;;;;;;5034027;28;20033;-46
2023/06/06 09:29:25;;;;;;;12.10;10.00;;;18.10;99.90;;;;;;5014909;28;20026;-50
2023/06/06 09:32:11;;;;;;;10.85;9.70;;;18.30;99.90;;;;;;5025118;28;20071;-49
2023/06/06 09:35:01;;;;;;;9.90;8.85;;;18.40;99.90;;;;;;5034799;28;20026;-49
2023/06/06 09:37:47;;;;;;;9.20;8.27;;;18.50;99.90;;;;;;5033292;28;20030;-46
2023/06/06 09:40:33;;;;;;;10.50;9.10;;;18.80;99.90;;;;;;5036306;28;20037;-46
2023/06/06 09:43:26;;;;;;;10.15;8.68;;;19.00;99.90;;;;;;5035449;28;20037;-45
2023/06/06 09:46:18;;;;;;;10.55;9.43;;;19.10;99.90;;;;;;5036597;28;20029;-52
2023/06/06 09:49:04;;;;;;;8.98;8.07;;;19.20;99.90;;;;;;5033865;28;20048;-51
2023/06/06 09:51:52;;;;;;;10.85;9.40;;;19.40;99.90;;;;;;5023250;28;20084;-51
2023/06/06 09:54:43;;;;;;;10.27;8.65;;;19.50;99.90;;;;;;5035190;28;20065;-51
2023/06/06 09:57:30;;;;;;;12.18;8.57;;;19.50;99.90;;;;;;5020732;28;20080;-49
2023/06/06 10:00:17;;;;;;;9.50;8.50;;;19.60;99.90;;;;;;5028746;28;20026;-46
2023/06/06 10:03:08;;;;;;;9.20;8.30;;;19.60;99.90;;;;;;5028322;28;20022;-46
2023/06/06 10:05:54;;;;;;;14.68;9.07;;;19.60;99.90;;;;;;5021142;28;20041;-46
2023/06/06 10:08:41;;;;;;;10.30;8.88;;;19.50;99.90;;;;;;5034503;28;20032;-47
2023/06/06 10:11:28;;;;;;;9.80;8.45;;;19.60;99.90;;;;;;5030908;28;20082;-47
2023/06/06 10:14:17;;;;;;;12.35;9.95;;;19.80;99.90;;;;;;5033444;28;20028;-54
2023/06/06 10:17:06;;;;;;;9.43;8.40;;;19.90;99.90;;;;;;5019994;28;20034;-46
2023/06/06 10:19:55;;;;;;;9.95;8.93;;;19.90;99.90;;;;;;5020029;28;20537;-50
2023/06/06 10:22:41;;;;;;;11.75;9.77;;;19.90;99.90;;;;;;5024721;28;20033;-50
2023/06/06 10:25:27;;;;;;;10.18;8.55;;;19.80;99.90;;;;;;5017237;28;20442;-50
2023/06/06 10:28:48;;;;;;;9.95;8.57;;;19.70;99.90;;;;;;5022207;28;20132;-47
2023/06/06 10:31:56;;;;;;;11.30;8.60;;;19.90;99.90;;;;;;4991633;28;20046;-50
2023/06/06 10:34:48;;;;;;;11.18;9.98;;;20.10;99.90;;;;;;5032530;28;20036;-46
2023/06/06 10:37:38;;;;;;;12.63;9.57;;;20.30;99.90;;;;;;5033582;28;20075;-47
2023/06/06 10:40:24;;;;;;;10.13;9.13;;;20.20;99.90;;;;;;5033568;28;20018;-46
2023/06/06 10:43:11;;;;;;;13.57;9.93;;;20.30;99.90;;;;;;5024884;28;20112;-46
2023/06/06 10:45:57;;;;;;;10.65;9.55;;;20.20;99.90;;;;;;5015680;28;20611;-46
2023/06/06 10:48:53;;;;;;;11.18;9.30;;;20.20;99.90;;;;;;5014301;28;20072;-47
2023/06/06 10:51:39;;;;;;;12.20;9.50;;;20.20;99.90;;;;;;5018399;28;20034;-50
2023/06/06 10:54:33;;;;;;;14.13;9.57;;;20.40;99.90;;;;;;5034266;28;20065;-50
2023/06/06 10:57:19;;;;;;;9.77;8.88;;;20.40;99.90;;;;;;5045148;28;20033;-46
2023/06/06 11:00:09;;;;;;;10.50;8.70;;;20.40;99.90;;;;;;5021802;28;20509;-47
2023/06/06 11:02:58;;;;;;;11.80;10.18;;;20.60;99.90;;;;;;5014848;28;20450;-48
2023/06/06 11:06:04;;;;;;;10.82;8.80;;;20.70;99.90;;;;;;5014663;28;20469;-49
2023/06/06 11:08:56;;;;;;;10.50;8.85;;;20.90;99.90;;;;;;5012861;28;20041;-47
2023/06/06 11:11:42;;;;;;;9.65;8.60;;;21.00;99.90;;;;;;5013810;28;20041;-48
2023/06/06 11:14:28;;;;;;;9.40;8.13;;;21.20;99.90;;;;;;5029247;28;20080;-49
2023/06/06 11:17:14;;;;;;;8.48;7.05;;;21.30;99.60;;;;;;5031317;28;20034;-50
2023/06/06 11:20:02;;;;;;;8.93;8.02;;;21.60;98.70;;;;;;5032627;28;20040;-46
2023/06/06 11:22:53;;;;;;;9.38;8.25;;;21.40;97.50;;;;;;5032279;28;20056;-50
2023/06/06 11:25:40;;;;;;;9.35;7.93;;;21.40;97.40;;;;;;5030436;28;20028;-48
2023/06/06 11:28:26;;;;;;;11.20;8.40;;;21.50;96.90;;;;;;5032319;28;20433;-47
2023/06/06 11:31:16;;;;;;;10.80;7.65;;;21.50;96.30;;;;;;5032859;28;20030;-49
2023/06/06 11:34:10;;;;;;;9.73;7.93;;;21.60;96.20;;;;;;5032054;28;20037;-46
2023/06/06 11:36:57;;;;;;;9.55;7.45;;;21.70;95.50;;;;;;5033309;28;20029;-47
2023/06/06 11:39:43;;;;;;;7.97;7.03;;;21.70;94.60;;;;;;5033099;28;20556;-50
2023/06/06 11:42:29;;;;;;;11.38;7.78;;;21.70;94.70;;;;;;5033381;28;20573;-50
2023/06/06 11:45:16;;;;;;;9.77;7.30;;;21.80;94.80;;;;;;5033235;28;20038;-49
2023/06/06 11:48:02;;;;;;;11.00;6.50;;;21.80;93.60;;;;;;5032713;28;20116;-50
2023/06/06 11:50:48;;;;;;;12.32;7.72;;;21.80;93.90;;;;;;5038009;28;20030;-49
2023/06/06 11:53:35;;;;;;;10.63;7.68;;;21.70;93.20;;;;;;5037279;28;20045;-46
2023/06/06 11:56:21;;;;;;;8.20;6.53;;;21.70;93.10;;;;;;5038698;28;20034;-47
2023/06/06 11:59:10;;;;;;;8.95;7.53;;;21.60;93.40;;;;;;5019428;28;20026;-50
2023/06/06 12:02:00;;;;;;;9.40;8.15;;;21.70;93.60;;;;;;5016492;28;20058;-46
2023/06/06 12:04:49;;;;;;;10.68;7.40;;;21.80;93.50;;;;;;5022468;28;20514;-50
2023/06/06 12:07:35;;;;;;;11.07;7.57;;;21.80;93.10;;;;;;5016206;28;20088;-46
2023/06/06 12:10:30;;;;;;;9.20;7.57;;;21.90;92.60;;;;;;5013873;28;20033;-49
2023/06/06 12:13:32;;;;;;;10.82;7.38;;;22.00;92.90;;;;;;5014594;28;20034;-50
2023/06/06 12:16:20;;;;;;;11.38;8.27;;;22.10;92.70;;;;;;5027161;28;20111;-49
2023/06/06 12:19:14;;;;;;;9.88;8.07;;;22.20;92.90;;;;;;5032357;28;20457;-47
2023/06/06 12:22:00;;;;;;;11.85;7.50;;;22.10;92.10;;;;;;5027136;28;20105;-50
2023/06/06 12:24:47;;;;;;;9.63;8.55;;;22.20;91.90;;;;;;5042167;28;20022;-51
2023/06/06 12:27:36;;;;;;;11.13;8.10;;;22.20;91.40;;;;;;5036494;28;20044;-47
2023/06/06 12:30:32;;;;;;;8.57;7.57;;;22.10;91.60;;;;;;5032284;28;20087;-49
2023/06/06 12:33:19;;;;;;;11.90;8.02;;;22.30;91.20;;;;;;5031298;28;20083;-50
2023/06/06 12:36:19;;;;;;;11.85;8.35;;;22.40;91.50;;;;;;5024704;28;20390;-49
2023/06/06 12:39:09;;;;;;;11.10;8.25;;;22.50;90.90;;;;;;5012405;28;20057;-49
2023/06/06 12:41:55;;;;;;;28.15;23.50;;;22.40;90.60;;;;;;5012751;28;20026;-48
2023/06/06 12:44:41;;;;;;;15.77;14.18;;;22.50;90.60;;;;;;5013309;28;20049;-48
2023/06/06 12:47:27;;;;;;;10.25;8.98;;;22.50;90.20;;;;;;5013311;28;20057;-53
2023/06/06 12:50:13;;;;;;;12.25;8.93;;;22.30;90.40;;;;;;5013088;28;20410;-55
2023/06/06 12:53:00;;;;;;;9.90;8.18;;;22.30;90.20;;;;;;5012362;28;20121;-51
2023/06/06 12:55:46;;;;;;;11.43;8.35;;;22.10;90.30;;;;;;5017146;28;20056;-53
2023/06/06 12:58:34;;;;;;;11.75;7.90;;;22.00;90.20;;;;;;5031448;28;20022;-53
2023/06/06 13:01:21;;;;;;;10.75;8.88;;;21.90;90.30;;;;;;5032490;28;20069;-53
2023/06/06 13:04:07;;;;;;;14.80;7.78;;;22.00;90.50;;;;;;5030585;28;20042;-52
2023/06/06 13:06:53;;;;;;;11.18;8.05;;;22.10;90.40;;;;;;5033856;28;20037;-50
2023/06/06 13:09:39;;;;;;;11.05;8.77;;;22.10;90.60;;;;;;5020860;28;20038;-53
2023/06/06 13:12:28;;;;;;;11.85;8.20;;;22.00;90.10;;;;;;5016088;28;20026;-51
2023/06/06 13:15:15;;;;;;;10.32;8.57;;;22.00;90.10;;;;;;5014724;28;20022;-50
2023/06/06 13:18:01;;;;;;;11.30;8.02;;;22.10;89.70;;;;;;5015004;28;20041;-50
2023/06/06 13:20:47;;;;;;;10.60;8.50;;;22.10;89.60;;;;;;5016275;28;20034;-50
2023/06/06 13:23:33;;;;;;;12.00;8.20;;;22.10;89.50;;;;;;5014887;28;20544;-53
2023/06/06 13:26:19;;;;;;;10.40;7.80;;;22.30;88.80;;;;;;5024381;28;20064;-54
2023/06/06 13:29:05;;;;;;;10.38;7.70;;;22.40;88.90;;;;;;5013631;28;20516;-52
2023/06/06 13:31:52;;;;;;;10.82;8.60;;;22.80;89.20;;;;;;5015896;28;20026;-51
2023/06/06 13:34:39;;;;;;;11.60;8.60;;;23.10;89.10;;;;;;5016457;28;20037;-50
2023/06/06 13:37:25;;;;;;;13.50;8.73;;;23.40;87.10;;;;;;5035925;28;20026;-54
2023/06/06 13:40:11;;;;;;;8.77;7.88;;;23.80;86.40;;;;;;5033114;28;20089;-53
2023/06/06 13:42:57;;;;;;;10.02;8.25;;;24.20;86.00;;;;;;5015449;28;20049;-50
2023/06/06 13:45:43;;;;;;;10.85;8.35;;;24.70;84.30;;;;;;5014890;28;20129;-48
2023/06/06 13:48:28;;;;;;;9.15;8.10;;;25.00;82.70;;;;;;5014624;28;20032;-50
2023/06/06 13:51:17;;;;;;;9.77;8.00;;;24.90;80.90;;;;;;5022299;28;20519;-50
2023/06/06 13:54:03;;;;;;;10.15;7.97;;;24.80;81.20;;;;;;5022707;28;20499;-49
2023/06/06 13:56:49;;;;;;;9.65;7.93;;;24.70;81.00;;;;;;5018985;28;20402;-48
2023/06/06 13:59:36;;;;;;;14.55;8.60;;;24.40;81.40;;;;;;5027131;28;20029;-48
2023/06/06 14:02:23;;;;;;;13.98;8.50;;;24.10;82.50;;;;;;5018146;28;20030;-48
2023/06/06 14:05:10;;;;;;;16.17;12.88;;;23.60;82.60;;;;;;5022005;28;20124;-49
2023/06/06 14:07:56;;;;;;;12.27;9.43;;;23.70;82.60;;;;;;5035644;28;20030;-50
2023/06/06 14:10:43;;;;;;;18.00;12.55;;;23.70;82.70;;;;;;5036994;28;20390;-46
2023/06/06 14:13:29;;;;;;;14.38;10.50;;;23.80;82.40;;;;;;5035048;28;20025;-47
2023/06/06 14:16:15;;;;;;;10.52;8.25;;;23.90;81.90;;;;;;5033871;28;20037;-51
2023/06/06 14:19:01;;;;;;;10.95;7.82;;;23.70;81.80;;;;;;5032450;28;20506;-49
2023/06/06 14:21:58;;;;;;;9.75;8.30;;;23.60;83.10;;;;;;5034176;28;20033;-47